Time;durP1;ratioP1;P1;durP2;ratioP2;P2;SDS_P1;SDS_P2;PMS_P1;PMS_P2;Temp;Humidity;BMP_temperature;BMP_pressure;BME280_temperature;BME280_humidity;BME280_pressure;Samples;Min_cycle;Max_cycle;Signal;HPM_P1;HPM_P2
2023/03/11 00:00:47;;;;;;;19.95;8.75;;;7.80;99.90;;;;;;4428529;28;655257;-67
2023/03/11 00:03:34;;;;;;;21.77;9.75;;;7.90;99.90;;;;;;4437777;28;655511;-67
2023/03/11 00:06:23;;;;;;;18.27;9.03;;;7.80;99.90;;;;;;4422465;28;656181;-67
2023/03/11 00:09:10;;;;;;;19.50;9.13;;;7.80;99.90;;;;;;4418121;28;655451;-67
2023/03/11 00:11:58;;;;;;;18.50;9.97;;;7.90;99.90;;;;;;4439650;28;656533;-67
2023/03/11 00:14:45;;;;;;;24.03;9.80;;;7.80;99.90;;;;;;4433605;28;656261;-67
2023/03/11 00:17:32;;;;;;;23.47;9.63;;;7.90;99.90;;;;;;4444746;28;655070;-67
2023/03/11 00:20:22;;;;;;;19.50;9.27;;;8.00;99.90;;;;;;4447071;28;655322;-67
2023/03/11 00:23:11;;;;;;;17.03;9.20;;;8.00;99.90;;;;;;4436240;28;655045;-67
2023/03/11 00:26:01;;;;;;;22.47;9.47;;;8.10;99.90;;;;;;4418429;28;656997;-67
2023/03/11 00:28:49;;;;;;;22.67;9.20;;;8.20;99.90;;;;;;4416192;28;656842;-67
2023/03/11 00:31:36;;;;;;;18.60;9.10;;;8.10;99.90;;;;;;4423070;28;655102;-67
2023/03/11 00:34:24;;;;;;;15.13;7.63;;;8.20;99.90;;;;;;4446424;28;655108;-67
2023/03/11 00:37:11;;;;;;;18.10;9.33;;;8.20;99.90;;;;;;4422353;28;655514;-67
2023/03/11 00:40:00;;;;;;;16.20;8.40;;;8.30;99.90;;;;;;4442530;28;656509;-67
2023/03/11 00:42:48;;;;;;;16.43;7.20;;;8.20;99.90;;;;;;4424963;28;657378;-67
2023/03/11 00:45:35;;;;;;;19.40;6.77;;;8.20;99.90;;;;;;4423203;28;656746;-67
2023/03/11 00:48:22;;;;;;;12.87;6.50;;;8.20;99.90;;;;;;4440557;28;657111;-67
2023/03/11 00:51:12;;;;;;;13.27;5.97;;;8.20;99.90;;;;;;4441127;28;656705;-67
2023/03/11 00:53:59;;;;;;;10.47;5.80;;;8.20;99.90;;;;;;4445655;28;657115;-67
2023/03/11 00:56:48;;;;;;;11.77;6.07;;;8.30;99.90;;;;;;4425433;28;658385;-67
2023/03/11 00:59:35;;;;;;;14.20;6.33;;;8.30;99.90;;;;;;4422687;28;656382;-67
2023/03/11 01:02:22;;;;;;;10.80;5.80;;;8.20;99.90;;;;;;4442045;28;657205;-67
2023/03/11 01:05:10;;;;;;;11.23;5.80;;;8.30;99.90;;;;;;4337523;28;656975;-68
2023/03/11 01:07:58;;;;;;;10.30;4.60;;;8.30;99.90;;;;;;4262762;28;656109;-67
2023/03/11 01:10:45;;;;;;;5.87;3.27;;;8.20;99.90;;;;;;4277041;28;656548;-67
2023/03/11 01:13:34;;;;;;;11.27;3.97;;;8.30;99.90;;;;;;4440438;28;655238;-67
2023/03/11 01:16:21;;;;;;;7.63;2.87;;;8.30;99.90;;;;;;4421592;28;656521;-67
2023/03/11 01:19:08;;;;;;;6.00;3.30;;;8.20;99.90;;;;;;4443697;28;656668;-67
2023/03/11 01:21:56;;;;;;;5.57;3.10;;;8.20;99.90;;;;;;4424107;28;655662;-68
2023/03/11 01:24:43;;;;;;;6.30;3.03;;;8.20;99.90;;;;;;4446327;28;655856;-67
2023/03/11 01:27:30;;;;;;;5.23;3.00;;;8.20;99.90;;;;;;4424476;28;656233;-67
2023/03/11 01:30:20;;;;;;;5.23;2.87;;;8.20;99.90;;;;;;4438982;28;656183;-67
2023/03/11 01:33:08;;;;;;;4.53;2.60;;;8.20;99.90;;;;;;4415584;28;657175;-67
2023/03/11 01:35:55;;;;;;;4.03;2.33;;;8.10;99.90;;;;;;4423887;28;655831;-67
2023/03/11 01:38:42;;;;;;;4.97;2.43;;;8.10;99.90;;;;;;4448729;28;655387;-67
2023/03/11 01:41:30;;;;;;;5.40;2.70;;;8.10;99.90;;;;;;4439519;28;655570;-67
2023/03/11 01:44:17;;;;;;;4.87;2.53;;;8.10;99.90;;;;;;4436194;28;656153;-67
2023/03/11 01:47:35;;;;;;;4.70;2.90;;;8.10;99.90;;;;;;4437357;28;656010;-67
2023/03/11 01:50:24;;;;;;;9.97;3.00;;;8.10;99.90;;;;;;4419506;28;655270;-67
2023/03/11 01:53:11;;;;;;;4.60;2.50;;;8.10;99.90;;;;;;4417557;28;655633;-67
2023/03/11 01:55:58;;;;;;;5.93;2.67;;;8.10;99.90;;;;;;4442717;28;655647;-67
2023/03/11 01:58:47;;;;;;;4.23;2.77;;;7.90;99.90;;;;;;4418842;28;656332;-67
2023/03/11 02:01:35;;;;;;;4.73;2.53;;;7.80;99.90;;;;;;4439450;28;655939;-67
2023/03/11 02:04:24;;;;;;;3.70;1.67;;;7.80;99.90;;;;;;4422311;28;656054;-68
2023/03/11 02:07:11;;;;;;;3.47;2.00;;;7.80;99.90;;;;;;4416606;28;655484;-68
2023/03/11 02:09:58;;;;;;;6.80;2.60;;;7.70;99.90;;;;;;4438973;28;655361;-67
2023/03/11 02:12:45;;;;;;;3.20;2.10;;;7.70;99.90;;;;;;4421085;28;656378;-68
2023/03/11 02:15:33;;;;;;;3.37;2.10;;;7.60;99.90;;;;;;4442004;28;656328;-68
2023/03/11 02:18:21;;;;;;;4.03;1.80;;;7.50;99.90;;;;;;4430609;28;656103;-67
2023/03/11 02:21:14;;;;;;;2.00;1.10;;;7.40;99.90;;;;;;4444281;28;656218;-67
2023/03/11 02:24:04;;;;;;;2.50;1.47;;;7.20;99.90;;;;;;4388769;28;655808;-68
2023/03/11 02:26:55;;;;;;;2.57;1.30;;;7.20;99.90;;;;;;4420511;28;655887;-66
2023/03/11 02:29:42;;;;;;;3.47;1.10;;;7.10;99.90;;;;;;4419768;28;655845;-67
2023/03/11 02:32:30;;;;;;;2.33;1.30;;;6.90;99.90;;;;;;4439500;28;655595;-67
2023/03/11 02:35:18;;;;;;;2.20;1.00;;;6.90;99.90;;;;;;4445813;28;656069;-67
2023/03/11 02:38:05;;;;;;;2.07;1.10;;;6.90;99.90;;;;;;4435367;28;655491;-67
2023/03/11 02:40:54;;;;;;;1.80;1.00;;;6.80;99.90;;;;;;4447596;28;656257;-67
2023/03/11 02:43:43;;;;;;;3.33;1.20;;;6.80;99.90;;;;;;4423373;28;655667;-68
2023/03/11 02:46:31;;;;;;;1.17;0.97;;;6.80;99.90;;;;;;4427911;28;655946;-67
2023/03/11 02:49:18;;;;;;;1.67;1.00;;;6.80;99.90;;;;;;4441965;28;655811;-66
2023/03/11 02:52:06;;;;;;;2.03;1.20;;;6.80;99.90;;;;;;4421479;28;655988;-67
2023/03/11 02:54:53;;;;;;;2.27;1.20;;;6.80;99.90;;;;;;4448878;28;655989;-67
2023/03/11 02:57:40;;;;;;;1.47;0.87;;;6.80;99.90;;;;;;4427006;28;655321;-67
2023/03/11 03:00:29;;;;;;;1.90;1.10;;;6.70;99.90;;;;;;4445882;28;655336;-67
2023/03/11 03:03:16;;;;;;;2.37;1.30;;;6.60;99.90;;;;;;4427587;28;655783;-67
2023/03/11 03:06:04;;;;;;;2.27;1.33;;;6.50;99.90;;;;;;4446271;28;655800;-68
2023/03/11 03:08:51;;;;;;;2.00;1.33;;;6.40;99.90;;;;;;4423596;28;655460;-68
2023/03/11 03:11:38;;;;;;;2.37;1.30;;;6.40;99.90;;;;;;4447567;28;655888;-68
2023/03/11 03:14:26;;;;;;;2.53;1.47;;;6.30;99.90;;;;;;4425466;28;656237;-67
2023/03/11 03:17:14;;;;;;;2.77;1.30;;;6.20;99.90;;;;;;4442896;28;656480;-67
2023/03/11 03:20:04;;;;;;;1.93;1.50;;;6.20;99.90;;;;;;4423519;28;655504;-67
2023/03/11 03:22:52;;;;;;;2.03;1.10;;;6.20;99.90;;;;;;4423564;28;655580;-69
2023/03/11 03:25:42;;;;;;;1.67;1.00;;;6.20;99.90;;;;;;4448663;28;655516;-69
2023/03/11 03:28:29;;;;;;;3.23;1.10;;;6.20;99.90;;;;;;4424150;28;655012;-67
2023/03/11 03:31:16;;;;;;;1.60;1.00;;;6.20;99.90;;;;;;4424276;28;656075;-68
2023/03/11 03:34:05;;;;;;;2.67;1.50;;;6.10;99.90;;;;;;4446784;28;655976;-67
2023/03/11 03:36:52;;;;;;;1.60;1.10;;;6.10;99.90;;;;;;4419497;28;656333;-67
2023/03/11 03:39:39;;;;;;;2.03;1.17;;;6.00;99.90;;;;;;4443764;28;655586;-68
2023/03/11 03:42:27;;;;;;;1.77;1.33;;;6.00;99.90;;;;;;4424141;28;656005;-67
2023/03/11 03:45:14;;;;;;;4.80;1.50;;;5.90;99.90;;;;;;4437714;28;655702;-67
2023/03/11 03:48:02;;;;;;;5.00;1.60;;;5.90;99.90;;;;;;4421989;28;655227;-68
2023/03/11 03:50:50;;;;;;;3.33;1.70;;;5.90;99.90;;;;;;4444140;28;654561;-67
2023/03/11 03:53:37;;;;;;;4.20;2.10;;;5.90;99.90;;;;;;4420674;28;655747;-67
2023/03/11 03:56:25;;;;;;;2.77;1.50;;;5.90;99.90;;;;;;4437379;28;655659;-67
2023/03/11 03:59:13;;;;;;;1.93;1.50;;;5.80;99.90;;;;;;4439176;28;656730;-69
2023/03/11 04:02:00;;;;;;;2.03;1.40;;;5.90;99.90;;;;;;4429429;28;655395;-67
2023/03/11 04:04:47;;;;;;;2.50;1.30;;;5.80;99.90;;;;;;4443459;28;656437;-67
2023/03/11 04:07:37;;;;;;;2.20;0.87;;;5.90;99.90;;;;;;4435922;28;656097;-69
2023/03/11 04:10:24;;;;;;;1.77;1.40;;;5.80;99.90;;;;;;4448888;28;655209;-66
2023/03/11 04:13:11;;;;;;;4.33;1.50;;;5.80;99.90;;;;;;4422929;28;655344;-67
2023/03/11 04:15:58;;;;;;;2.43;1.60;;;5.70;99.90;;;;;;4442055;28;655913;-67
2023/03/11 04:18:46;;;;;;;4.53;1.53;;;5.60;99.90;;;;;;4424177;28;655597;-67
2023/03/11 04:21:33;;;;;;;2.60;1.30;;;5.50;99.90;;;;;;4442959;28;655769;-67
2023/03/11 04:24:22;;;;;;;3.77;1.80;;;5.40;99.90;;;;;;4420850;28;655681;-67
2023/03/11 04:27:09;;;;;;;5.00;1.63;;;5.30;99.90;;;;;;4444902;28;655817;-67
2023/03/11 04:29:56;;;;;;;5.00;1.57;;;5.20;99.90;;;;;;4425120;28;655516;-67
2023/03/11 04:32:43;;;;;;;7.73;2.03;;;5.20;99.90;;;;;;4440378;28;656196;-67
2023/03/11 04:35:30;;;;;;;3.20;1.47;;;5.10;99.90;;;;;;4416041;28;655350;-67
2023/03/11 04:38:18;;;;;;;4.63;1.50;;;5.00;99.90;;;;;;4441103;28;656056;-67
2023/03/11 04:41:07;;;;;;;4.37;2.10;;;5.00;99.90;;;;;;4432016;28;655664;-67
2023/03/11 04:43:54;;;;;;;5.17;2.57;;;4.90;99.90;;;;;;4443030;28;655410;-67
2023/03/11 04:46:41;;;;;;;4.80;2.10;;;4.90;99.90;;;;;;4420872;28;655838;-67
2023/03/11 04:49:28;;;;;;;4.67;2.67;;;4.80;99.90;;;;;;4441843;28;655854;-67
2023/03/11 04:52:16;;;;;;;6.40;2.27;;;4.70;99.90;;;;;;4416638;28;655288;-68
2023/03/11 04:55:03;;;;;;;4.00;2.47;;;4.60;99.90;;;;;;4445590;28;655262;-69
2023/03/11 04:57:52;;;;;;;2.57;1.70;;;4.50;99.90;;;;;;4418658;28;655624;-69
2023/03/11 05:00:40;;;;;;;4.90;2.00;;;4.30;99.90;;;;;;4450171;28;656989;-70
2023/03/11 05:03:27;;;;;;;2.40;1.80;;;4.10;99.90;;;;;;4422676;28;656243;-69
2023/03/11 05:06:14;;;;;;;3.07;2.00;;;4.00;99.90;;;;;;4441948;28;655558;-70
2023/03/11 05:09:01;;;;;;;3.67;2.30;;;3.90;99.90;;;;;;4352415;28;656212;-69
2023/03/11 05:11:48;;;;;;;5.30;2.47;;;3.70;99.90;;;;;;4265664;28;655355;-69
2023/03/11 05:14:38;;;;;;;4.83;2.60;;;3.70;99.90;;;;;;4248532;28;655755;-69
2023/03/11 05:17:25;;;;;;;6.07;2.40;;;3.70;99.90;;;;;;4431963;28;655814;-70
2023/03/11 05:20:13;;;;;;;3.37;2.80;;;3.70;99.90;;;;;;4449151;28;656513;-69
2023/03/11 05:23:00;;;;;;;3.73;3.10;;;3.60;99.90;;;;;;4434979;28;655691;-69
2023/03/11 05:25:47;;;;;;;4.83;3.13;;;3.60;99.90;;;;;;4444394;28;655236;-69
2023/03/11 05:28:35;;;;;;;4.10;3.00;;;3.60;99.90;;;;;;4438770;28;655043;-70
2023/03/11 05:31:23;;;;;;;3.40;2.70;;;3.60;99.90;;;;;;4412952;28;656613;-70
2023/03/11 05:34:10;;;;;;;3.93;2.43;;;3.60;99.90;;;;;;4420150;28;656037;-70
2023/03/11 05:36:58;;;;;;;2.57;2.13;;;3.50;99.90;;;;;;4435194;28;656449;-69
2023/03/11 05:39:45;;;;;;;2.77;1.53;;;3.50;99.90;;;;;;4423866;28;655418;-69
2023/03/11 05:42:32;;;;;;;3.80;2.90;;;3.40;99.90;;;;;;4443278;28;656105;-70
2023/03/11 05:45:20;;;;;;;5.20;3.10;;;3.40;99.90;;;;;;4442220;28;657014;-69
2023/03/11 05:48:09;;;;;;;3.00;2.53;;;3.50;99.90;;;;;;4440192;28;657233;-70
2023/03/11 05:50:56;;;;;;;4.80;2.40;;;3.40;99.90;;;;;;4419766;28;655010;-71
2023/03/11 05:53:46;;;;;;;2.40;2.10;;;3.40;99.90;;;;;;4438184;28;655957;-71
2023/03/11 05:56:34;;;;;;;5.10;2.90;;;3.40;99.90;;;;;;4415122;28;655701;-70
2023/03/11 05:59:22;;;;;;;3.37;2.57;;;3.20;99.90;;;;;;4418919;28;654964;-70
2023/03/11 06:02:09;;;;;;;3.10;2.13;;;3.20;99.90;;;;;;4438533;28;655201;-71
2023/03/11 06:04:57;;;;;;;2.63;2.13;;;3.10;99.90;;;;;;4423422;28;655540;-70
2023/03/11 06:07:45;;;;;;;3.67;2.50;;;2.90;99.90;;;;;;4435312;28;655386;-69
2023/03/11 06:10:32;;;;;;;3.53;2.43;;;2.70;99.90;;;;;;4443658;28;655732;-72
2023/03/11 06:13:20;;;;;;;6.33;2.67;;;2.70;99.90;;;;;;4437892;28;655467;-70
2023/03/11 06:16:08;;;;;;;3.77;1.33;;;2.60;99.90;;;;;;4437957;28;655882;-73
2023/03/11 06:18:55;;;;;;;2.67;1.33;;;2.50;99.90;;;;;;4434237;28;655800;-69
2023/03/11 06:21:44;;;;;;;2.53;1.30;;;2.40;99.90;;;;;;4443037;28;656258;-77
2023/03/11 06:24:31;;;;;;;3.67;1.50;;;2.20;99.90;;;;;;4424076;28;655679;-73
2023/03/11 06:27:19;;;;;;;2.27;1.20;;;2.10;99.90;;;;;;4443409;28;656299;-75
2023/03/11 06:30:07;;;;;;;1.00;0.83;;;1.90;99.90;;;;;;4423539;28;655667;-75
2023/03/11 06:32:54;;;;;;;1.10;0.80;;;1.70;99.90;;;;;;4446525;28;655668;-73
2023/03/11 06:35:41;;;;;;;1.48;0.93;;;1.50;99.90;;;;;;4430014;28;655798;-75
2023/03/11 06:38:30;;;;;;;2.03;1.00;;;1.40;99.90;;;;;;4444600;28;656325;-72
2023/03/11 06:41:17;;;;;;;0.73;0.70;;;1.30;99.90;;;;;;4428290;28;656460;-71
2023/03/11 06:44:05;;;;;;;1.70;1.10;;;1.20;99.90;;;;;;4443501;28;655468;-72
2023/03/11 06:46:52;;;;;;;2.73;1.80;;;1.10;99.90;;;;;;4427266;28;656052;-71
2023/03/11 06:49:41;;;;;;;2.27;1.47;;;1.20;99.90;;;;;;4445200;28;655338;-71
2023/03/11 06:52:28;;;;;;;3.22;2.10;;;1.10;99.90;;;;;;4416642;28;654987;-72
2023/03/11 06:55:17;;;;;;;3.60;2.40;;;1.00;99.90;;;;;;4419388;28;655541;-73
2023/03/11 06:58:04;;;;;;;3.25;2.60;;;1.00;99.90;;;;;;4440796;28;655132;-76
2023/03/11 07:00:52;;;;;;;3.17;2.07;;;1.10;99.90;;;;;;4419706;28;656123;-75
2023/03/11 07:03:39;;;;;;;4.63;2.83;;;1.00;99.90;;;;;;4446688;28;655268;-75
2023/03/11 07:06:27;;;;;;;3.30;2.63;;;1.10;99.90;;;;;;4423555;28;655804;-74
2023/03/11 07:09:14;;;;;;;2.83;2.43;;;1.00;99.90;;;;;;4447382;28;655333;-72
2023/03/11 07:12:03;;;;;;;3.00;2.43;;;0.90;99.90;;;;;;4419412;28;655429;-72
2023/03/11 07:14:54;;;;;;;4.13;2.40;;;0.90;99.90;;;;;;4421763;28;655373;-71
2023/03/11 07:17:42;;;;;;;3.23;2.30;;;1.00;99.90;;;;;;4418406;28;655760;-73
2023/03/11 07:20:29;;;;;;;4.47;2.53;;;0.90;99.90;;;;;;4450632;28;656348;-73
2023/03/11 07:23:16;;;;;;;6.13;3.30;;;0.90;99.90;;;;;;4422881;28;655570;-72
2023/03/11 07:26:04;;;;;;;3.23;1.97;;;0.90;99.90;;;;;;4445462;28;656625;-72
2023/03/11 07:28:53;;;;;;;4.23;2.87;;;0.90;99.90;;;;;;4424713;28;655865;-71
2023/03/11 07:31:41;;;;;;;4.77;2.73;;;1.00;99.90;;;;;;4424813;28;655559;-71
2023/03/11 07:34:28;;;;;;;4.23;2.57;;;1.00;99.90;;;;;;4449943;28;655818;-72
2023/03/11 07:37:15;;;;;;;3.83;2.73;;;0.90;99.90;;;;;;4422724;28;655554;-74
2023/03/11 07:40:03;;;;;;;4.47;2.57;;;1.00;99.90;;;;;;4446357;28;657103;-74
2023/03/11 07:42:50;;;;;;;6.70;3.40;;;1.00;99.90;;;;;;4422965;28;656436;-73
2023/03/11 07:45:39;;;;;;;6.50;3.00;;;1.00;99.90;;;;;;4449045;28;655559;-71
2023/03/11 07:48:26;;;;;;;5.73;3.50;;;1.00;99.90;;;;;;4423985;28;656181;-70
2023/03/11 07:51:14;;;;;;;5.33;3.73;;;0.90;99.90;;;;;;4444681;28;655975;-70
2023/03/11 07:54:02;;;;;;;7.10;4.43;;;1.00;99.90;;;;;;4424069;28;656749;-71
2023/03/11 07:56:49;;;;;;;5.57;3.80;;;0.90;99.90;;;;;;4443706;28;655434;-71
2023/03/11 07:59:36;;;;;;;6.30;3.53;;;0.90;99.90;;;;;;4419777;28;655766;-70
2023/03/11 08:02:25;;;;;;;8.13;5.47;;;0.90;99.90;;;;;;4439740;28;655856;-70
2023/03/11 08:05:13;;;;;;;5.77;3.77;;;0.90;99.90;;;;;;4419150;28;655941;-72
2023/03/11 08:08:00;;;;;;;9.27;5.03;;;0.90;99.90;;;;;;4434195;28;655459;-71
2023/03/11 08:10:47;;;;;;;9.63;5.87;;;0.80;99.90;;;;;;4442035;28;655514;-70
2023/03/11 08:13:35;;;;;;;10.73;6.87;;;0.90;99.90;;;;;;4439974;28;655488;-71
2023/03/11 08:16:22;;;;;;;9.57;5.57;;;0.90;99.90;;;;;;4444928;28;657319;-70
2023/03/11 08:19:12;;;;;;;8.07;4.00;;;0.90;99.90;;;;;;4442808;28;655610;-71
2023/03/11 08:22:01;;;;;;;7.53;4.97;;;0.80;99.90;;;;;;4442397;28;655940;-71
2023/03/11 08:24:51;;;;;;;10.77;6.50;;;0.70;99.90;;;;;;4439352;28;656016;-71
2023/03/11 08:27:39;;;;;;;10.57;6.37;;;0.80;99.90;;;;;;4425774;28;657194;-71
2023/03/11 08:30:26;;;;;;;12.93;8.07;;;0.80;99.90;;;;;;4421862;28;656920;-71
2023/03/11 08:33:13;;;;;;;11.03;6.63;;;0.70;99.90;;;;;;4444075;28;657098;-70
2023/03/11 08:36:02;;;;;;;12.70;6.83;;;0.70;99.90;;;;;;4421420;28;657532;-71
2023/03/11 08:38:49;;;;;;;7.97;4.57;;;0.70;99.90;;;;;;4440396;28;656650;-71
2023/03/11 08:41:36;;;;;;;13.40;6.60;;;0.60;99.90;;;;;;4425844;28;655212;-70
2023/03/11 08:44:23;;;;;;;9.70;6.03;;;0.70;99.90;;;;;;4440185;28;657262;-71
2023/03/11 08:47:11;;;;;;;9.63;5.50;;;0.70;99.90;;;;;;4423493;28;656143;-71
2023/03/11 08:49:58;;;;;;;11.90;6.30;;;0.70;99.90;;;;;;4446145;28;656182;-71
2023/03/11 08:52:47;;;;;;;12.50;7.20;;;0.80;99.90;;;;;;4425064;28;656591;-71
2023/03/11 08:55:34;;;;;;;9.98;6.07;;;0.80;99.90;;;;;;4437095;28;656242;-71
2023/03/11 08:58:21;;;;;;;8.67;5.70;;;0.80;99.90;;;;;;4424100;28;656395;-71
2023/03/11 09:01:09;;;;;;;5.93;4.43;;;0.80;99.90;;;;;;4445376;28;656136;-69
2023/03/11 09:03:56;;;;;;;9.33;6.27;;;0.60;99.90;;;;;;4426902;28;655297;-71
2023/03/11 09:06:43;;;;;;;9.77;5.90;;;0.80;99.90;;;;;;4430279;28;656333;-71
2023/03/11 09:09:32;;;;;;;9.40;5.57;;;0.80;99.90;;;;;;4410458;28;655432;-73
2023/03/11 09:12:19;;;;;;;8.53;4.53;;;0.70;99.90;;;;;;4432069;28;654865;-69
2023/03/11 09:15:07;;;;;;;9.67;5.97;;;0.80;99.90;;;;;;4409028;28;655982;-71
2023/03/11 09:17:55;;;;;;;10.93;6.33;;;0.80;99.90;;;;;;4432124;28;655187;-69
2023/03/11 09:20:43;;;;;;;6.67;4.43;;;0.70;99.90;;;;;;4404338;28;657175;-70
2023/03/11 09:23:30;;;;;;;6.83;4.77;;;0.80;99.90;;;;;;4415804;28;655717;-70
2023/03/11 09:26:19;;;;;;;8.00;4.80;;;0.80;99.90;;;;;;4442989;28;655417;-71
2023/03/11 09:29:06;;;;;;;8.53;4.73;;;0.80;99.90;;;;;;4410763;28;655724;-71
2023/03/11 09:31:53;;;;;;;7.87;5.37;;;0.60;99.90;;;;;;4432054;28;655839;-71
2023/03/11 09:34:41;;;;;;;12.23;6.30;;;0.60;99.90;;;;;;4408577;28;655690;-70
2023/03/11 09:37:29;;;;;;;9.63;5.40;;;0.60;99.90;;;;;;4445336;28;657290;-74
2023/03/11 09:40:17;;;;;;;8.70;4.63;;;0.70;99.90;;;;;;4415395;28;655291;-72
2023/03/11 09:43:10;;;;;;;11.10;5.43;;;0.60;99.90;;;;;;4446167;28;655205;-71
2023/03/11 09:46:02;;;;;;;11.97;6.07;;;0.50;99.90;;;;;;4376755;28;657435;-71
2023/03/11 09:48:50;;;;;;;7.80;5.07;;;0.50;99.90;;;;;;4401544;28;656584;-69
2023/03/11 09:51:39;;;;;;;7.87;3.80;;;0.50;99.90;;;;;;4400302;28;656047;-69
2023/03/11 09:54:29;;;;;;;6.07;3.93;;;0.50;99.90;;;;;;4406882;28;656282;-71
2023/03/11 09:57:18;;;;;;;8.15;4.80;;;0.30;99.90;;;;;;4403487;28;655521;-74
2023/03/11 10:00:10;;;;;;;5.20;2.83;;;0.40;99.90;;;;;;4403902;28;655498;-72
2023/03/11 10:02:57;;;;;;;7.00;3.63;;;0.50;99.90;;;;;;4392855;28;655984;-71
2023/03/11 10:05:46;;;;;;;7.80;4.23;;;0.50;99.90;;;;;;4420625;28;655560;-72
2023/03/11 10:08:34;;;;;;;9.00;3.42;;;0.50;99.90;;;;;;4418457;28;655859;-74
2023/03/11 10:11:48;;;;;;;5.93;4.27;;;0.40;99.90;;;;;;4405243;28;655204;-71
2023/03/11 10:14:46;;;;;;;10.50;5.77;;;0.30;99.90;;;;;;4402083;28;656111;-70
2023/03/11 10:17:52;;;;;;;11.15;7.10;;;0.30;99.90;;;;;;4418632;28;657067;-70
2023/03/11 10:20:43;;;;;;;9.87;5.40;;;0.20;99.90;;;;;;4420014;28;657098;-69
2023/03/11 10:23:35;;;;;;;15.20;9.17;;;0.10;99.90;;;;;;4396713;28;658161;-71
2023/03/11 10:26:25;;;;;;;14.50;8.40;;;0.20;99.90;;;;;;4414686;28;657803;-73
2023/03/11 10:29:17;;;;;;;7.38;4.20;;;0.10;99.90;;;;;;4414318;28;657797;-75
2023/03/11 10:32:06;;;;;;;13.07;6.87;;;0.10;99.90;;;;;;4418027;28;656014;-74
2023/03/11 10:34:56;;;;;;;14.00;8.50;;;0.20;99.90;;;;;;4416906;28;656467;-73
2023/03/11 10:37:46;;;;;;;19.57;10.20;;;0.10;99.90;;;;;;4422330;28;656376;-74
2023/03/11 10:40:34;;;;;;;16.47;8.83;;;0.10;99.90;;;;;;4421211;28;657687;-72
2023/03/11 10:43:24;;;;;;;15.20;7.93;;;0.00;99.90;;;;;;4424428;28;657133;-72
2023/03/11 10:46:15;;;;;;;18.77;9.63;;;0.10;99.90;;;;;;4417425;28;657093;-71
2023/03/11 10:49:02;;;;;;;17.30;8.33;;;0.10;99.90;;;;;;4417041;28;657203;-73
2023/03/11 10:51:51;;;;;;;15.00;8.07;;;0.10;99.90;;;;;;4439054;28;656219;-72
2023/03/11 10:54:42;;;;;;;11.73;6.50;;;0.10;99.90;;;;;;4414697;28;656923;-72
2023/03/11 10:57:32;;;;;;;10.93;6.17;;;0.10;99.90;;;;;;4430847;28;656305;-73
2023/03/11 11:00:29;;;;;;;14.60;7.23;;;0.10;99.90;;;;;;4419896;28;656051;-72
2023/03/11 11:03:20;;;;;;;16.03;9.13;;;0.10;99.90;;;;;;4424204;28;657202;-71
2023/03/11 11:06:09;;;;;;;16.33;9.03;;;0.20;99.90;;;;;;4416257;28;657802;-72
2023/03/11 11:09:14;;;;;;;10.37;5.07;;;0.20;99.90;;;;;;4317900;28;657342;-74
2023/03/11 11:12:03;;;;;;;14.13;7.63;;;0.20;99.90;;;;;;4240328;28;656952;-73
2023/03/11 11:14:54;;;;;;;12.80;6.67;;;0.10;99.90;;;;;;4289663;28;656629;-72
2023/03/11 11:17:41;;;;;;;10.53;5.87;;;0.10;99.90;;;;;;4407346;28;656495;-74
2023/03/11 11:20:29;;;;;;;9.27;5.55;;;0.10;99.90;;;;;;4443559;28;657445;-73
2023/03/11 11:23:25;;;;;;;8.73;4.93;;;0.20;99.90;;;;;;4423559;28;655725;-73
2023/03/11 11:26:18;;;;;;;13.32;7.20;;;0.20;99.90;;;;;;4428185;28;655408;-73
2023/03/11 11:29:07;;;;;;;11.80;5.80;;;0.20;99.90;;;;;;4402656;28;657737;-73
2023/03/11 11:31:54;;;;;;;11.83;6.00;;;0.20;99.90;;;;;;4426225;28;656778;-72
2023/03/11 11:34:41;;;;;;;11.13;5.90;;;0.10;99.90;;;;;;4412074;28;656473;-72
2023/03/11 11:37:30;;;;;;;11.73;6.43;;;0.20;99.90;;;;;;4443901;28;656944;-72
2023/03/11 11:40:27;;;;;;;7.80;4.30;;;0.30;99.90;;;;;;4423354;28;657043;-73
2023/03/11 11:43:17;;;;;;;6.10;4.00;;;0.30;99.90;;;;;;4419192;28;655769;-72
2023/03/11 11:46:05;;;;;;;9.13;4.43;;;0.10;99.90;;;;;;4420670;28;655794;-75
2023/03/11 11:48:58;;;;;;;5.80;3.13;;;0.20;99.90;;;;;;4423636;28;656213;-72
2023/03/11 11:51:47;;;;;;;6.60;3.83;;;0.20;99.90;;;;;;4401226;28;655322;-73
2023/03/11 11:54:37;;;;;;;9.80;4.97;;;0.20;99.90;;;;;;4429859;28;655713;-72
2023/03/11 11:57:25;;;;;;;10.03;4.63;;;0.10;99.90;;;;;;4443868;28;659147;-73
2023/03/11 12:00:19;;;;;;;6.90;3.83;;;0.10;99.90;;;;;;4407378;28;656942;-73
2023/03/11 12:03:14;;;;;;;7.43;4.57;;;0.10;99.90;;;;;;4416651;28;655388;-74
2023/03/11 12:06:05;;;;;;;6.10;3.57;;;0.10;99.90;;;;;;4419996;28;656458;-73
2023/03/11 12:08:59;;;;;;;8.63;4.63;;;0.10;99.90;;;;;;4414082;28;656133;-74
2023/03/11 12:11:49;;;;;;;6.20;3.43;;;0.10;99.90;;;;;;4394978;28;655805;-71
2023/03/11 12:14:38;;;;;;;5.27;3.00;;;0.10;99.90;;;;;;4420186;28;655997;-73
2023/03/11 12:17:27;;;;;;;7.23;4.37;;;0.10;99.90;;;;;;4426107;28;655765;-73
2023/03/11 12:20:15;;;;;;;6.47;3.40;;;0.20;99.90;;;;;;4437633;28;655343;-76
2023/03/11 12:23:32;;;;;;;4.78;2.42;;;0.10;99.90;;;;;;4416387;28;655478;-72
2023/03/11 12:26:21;;;;;;;6.70;3.63;;;0.10;99.90;;;;;;4412012;28;655811;-73
2023/03/11 12:29:10;;;;;;;6.33;3.60;;;0.10;99.90;;;;;;4415901;28;655702;-74
2023/03/11 12:31:57;;;;;;;4.70;3.42;;;0.10;99.90;;;;;;4424900;28;656218;-74
2023/03/11 12:34:46;;;;;;;5.70;2.40;;;0.10;99.90;;;;;;4440737;28;655580;-72
2023/03/11 12:37:33;;;;;;;9.67;4.33;;;0.00;99.90;;;;;;4420322;28;655722;-73
2023/03/11 12:40:47;;;;;;;6.57;3.60;;;0.00;99.90;;;;;;4416906;28;655868;-74
2023/03/11 12:44:01;;;;;;;7.70;4.30;;;0.00;99.90;;;;;;4420109;28;655365;-74
2023/03/11 12:47:17;;;;;;;5.50;3.10;;;0.10;99.90;;;;;;4414636;28;656917;-74
2023/03/11 12:50:40;;;;;;;4.93;3.25;;;0.00;99.90;;;;;;4419495;28;655405;-75
2023/03/11 12:53:42;;;;;;;5.87;2.67;;;0.10;99.90;;;;;;4409748;28;655748;-74
2023/03/11 12:56:31;;;;;;;6.07;2.90;;;0.00;99.90;;;;;;4413734;28;655335;-73
2023/03/11 12:59:54;;;;;;;4.70;2.70;;;0.00;99.90;;;;;;4423431;28;656043;-72
2023/03/11 13:03:03;;;;;;;4.93;3.20;;;0.00;99.90;;;;;;4395698;28;656176;-72
2023/03/11 13:05:55;;;;;;;9.93;3.03;;;0.00;99.90;;;;;;4371847;28;655878;-73
2023/03/11 13:08:45;;;;;;;6.93;3.97;;;0.00;99.90;;;;;;4420939;28;655353;-71
2023/03/11 13:11:38;;;;;;;7.53;3.27;;;-0.10;99.90;;;;;;4424904;28;655949;-72
2023/03/11 13:14:30;;;;;;;10.40;5.03;;;0.00;99.90;;;;;;4395248;28;656379;-74
2023/03/11 13:17:25;;;;;;;8.70;3.67;;;0.00;99.90;;;;;;4411634;28;659870;-73
2023/03/11 13:20:48;;;;;;;6.73;3.57;;;0.00;99.90;;;;;;4395771;28;655980;-74
2023/03/11 13:23:39;;;;;;;6.90;3.33;;;-0.10;99.90;;;;;;4386024;28;655497;-74
2023/03/11 13:26:31;;;;;;;7.00;4.13;;;-0.20;99.90;;;;;;4420145;28;656550;-74
2023/03/11 13:29:36;;;;;;;6.90;3.47;;;-0.10;99.90;;;;;;4404624;28;656847;-74
2023/03/11 13:32:42;;;;;;;6.55;3.15;;;-0.10;99.90;;;;;;4417730;28;656530;-74
2023/03/11 13:35:39;;;;;;;6.80;3.23;;;-0.20;99.90;;;;;;4414246;28;657033;-73
2023/03/11 13:38:39;;;;;;;6.87;3.43;;;-0.10;99.90;;;;;;4403977;28;656874;-75
2023/03/11 13:41:30;;;;;;;6.33;2.90;;;-0.10;99.90;;;;;;4391685;28;657419;-74
2023/03/11 13:44:24;;;;;;;6.23;3.13;;;-0.10;99.90;;;;;;4410646;28;658979;-74
2023/03/11 13:47:14;;;;;;;6.80;3.53;;;-0.10;99.90;;;;;;4407991;28;657027;-73
2023/03/11 13:50:02;;;;;;;6.10;3.23;;;-0.10;99.90;;;;;;4411857;28;657267;-74
2023/03/11 13:52:52;;;;;;;6.90;3.17;;;-0.10;99.90;;;;;;4423650;28;657209;-74
2023/03/11 13:55:42;;;;;;;6.80;3.73;;;-0.10;99.90;;;;;;4431750;28;656872;-74
2023/03/11 13:58:30;;;;;;;6.27;3.17;;;-0.10;99.90;;;;;;4428106;28;656408;-74
2023/03/11 14:01:18;;;;;;;9.17;4.03;;;-0.20;99.90;;;;;;4427120;28;656752;-74
2023/03/11 14:04:07;;;;;;;3.50;2.00;;;-0.20;99.90;;;;;;4406670;28;656860;-73
2023/03/11 14:06:54;;;;;;;7.13;3.15;;;-0.30;99.90;;;;;;4423228;28;657362;-73
2023/03/11 14:09:41;;;;;;;6.40;3.90;;;-0.30;99.90;;;;;;4402715;28;658124;-73
2023/03/11 14:12:32;;;;;;;6.07;3.70;;;-0.30;99.90;;;;;;4425658;28;657552;-73
2023/03/11 14:15:21;;;;;;;6.07;3.07;;;-0.40;99.90;;;;;;4403953;28;656528;-72
2023/03/11 14:18:27;;;;;;;7.07;3.43;;;-0.40;99.90;;;;;;4401934;28;656590;-73
2023/03/11 14:21:16;;;;;;;11.23;4.27;;;-0.40;99.90;;;;;;4413857;28;656568;-73
2023/03/11 14:24:03;;;;;;;9.47;3.97;;;-0.30;99.90;;;;;;4439904;28;658748;-73
2023/03/11 14:26:53;;;;;;;6.73;3.57;;;-0.50;99.90;;;;;;4409056;28;656368;-72
2023/03/11 14:29:44;;;;;;;12.20;5.47;;;-0.60;99.90;;;;;;4412938;28;657064;-72
2023/03/11 14:32:32;;;;;;;6.70;3.50;;;-0.60;99.90;;;;;;4410256;28;658205;-73
2023/03/11 14:35:20;;;;;;;11.98;5.18;;;-0.50;99.90;;;;;;4436640;28;656083;-72
2023/03/11 14:38:20;;;;;;;17.83;6.50;;;-0.50;99.90;;;;;;4409765;28;658528;-72